createdAt,value
2018-06-29T00:01:38.730Z,34.40
2018-06-29T00:04:07.031Z,34.50
2018-06-29T00:06:35.491Z,34.40
2018-06-29T00:09:04.573Z,35.20
2018-06-29T00:11:32.899Z,34.40
2018-06-29T00:14:01.343Z,34.40
2018-06-29T00:16:29.750Z,34.50
2018-06-29T00:18:58.093Z,34.70
2018-06-29T00:21:26.481Z,34.60
2018-06-29T00:23:54.873Z,34.50
2018-06-29T00:26:23.243Z,34.50
2018-06-29T00:28:51.609Z,34.50
2018-06-29T00:31:20.010Z,34.60
2018-06-29T00:33:48.427Z,34.70
2018-06-29T00:36:16.745Z,34.50
2018-06-29T00:38:45.169Z,34.50
2018-06-29T00:41:13.575Z,34.70
2018-06-29T00:43:42.163Z,34.90
2018-06-29T00:46:10.629Z,34.70
2018-06-29T00:48:39.055Z,34.80
2018-06-29T00:51:07.443Z,34.80
2018-06-29T00:53:35.769Z,34.80
2018-06-29T00:56:04.299Z,34.80
2018-06-29T00:58:32.790Z,34.80
2018-06-29T01:01:01.151Z,35.00
2018-06-29T01:05:57.613Z,35.00
2018-06-29T01:08:25.947Z,35.10
2018-06-29T01:10:54.345Z,35.20
2018-06-29T01:13:22.717Z,35.30
2018-06-29T01:15:51.074Z,34.80
2018-06-29T01:18:19.477Z,35.00
2018-06-29T01:20:47.867Z,34.90
2018-06-29T01:23:16.252Z,34.60
2018-06-29T01:25:44.599Z,34.90
2018-06-29T01:28:12.957Z,34.80
2018-06-29T01:37:29.191Z,34.80
2018-06-29T01:39:57.513Z,34.70
2018-06-29T01:42:25.908Z,34.70
2018-06-29T01:44:54.308Z,34.60
2018-06-29T01:47:22.629Z,34.60
2018-06-29T01:49:51.013Z,34.90
2018-06-29T01:52:19.500Z,34.50
2018-06-29T01:54:47.967Z,34.60
2018-06-29T01:57:16.470Z,34.70
2018-06-29T01:59:44.821Z,34.70
2018-06-29T02:02:13.277Z,34.70
2018-06-29T02:04:41.645Z,34.70
2018-06-29T02:07:10.021Z,34.70
2018-06-29T02:09:38.415Z,34.70
2018-06-29T02:12:06.854Z,34.70
2018-06-29T02:14:35.241Z,34.80
2018-06-29T02:17:03.605Z,34.90
2018-06-29T02:19:31.971Z,34.70
2018-06-29T02:22:00.325Z,34.90
2018-06-29T02:24:28.651Z,34.90
2018-06-29T02:26:57.051Z,34.80
2018-06-29T02:29:25.495Z,34.90
2018-06-29T02:31:53.815Z,34.80
2018-06-29T02:34:22.205Z,34.80
2018-06-29T02:36:50.546Z,34.80
2018-06-29T02:39:18.957Z,34.80
2018-06-29T02:41:47.395Z,34.80
2018-06-29T02:44:15.773Z,34.90
2018-06-29T02:46:44.109Z,35.00
2018-06-29T02:49:12.455Z,35.00
2018-06-29T02:51:40.892Z,35.00
2018-06-29T02:54:09.256Z,35.10
2018-06-29T02:56:37.701Z,35.00
2018-06-29T02:59:06.081Z,35.00
2018-06-29T03:01:34.407Z,35.10
2018-06-29T03:04:02.851Z,35.10
2018-06-29T03:06:31.389Z,35.10
2018-06-29T03:08:59.793Z,35.30
2018-06-29T03:11:28.199Z,35.30
2018-06-29T03:13:56.645Z,35.20
2018-06-29T03:16:25.037Z,35.20
2018-06-29T03:18:53.365Z,35.60
2018-06-29T03:21:21.766Z,35.10
2018-06-29T03:23:50.157Z,34.90
2018-06-29T03:26:18.517Z,35.00
2018-06-29T03:31:14.937Z,34.80
2018-06-29T03:33:43.571Z,34.80
2018-06-29T03:36:11.905Z,34.80
2018-06-29T03:38:40.249Z,34.70
2018-06-29T03:41:08.601Z,34.80
2018-06-29T03:43:37.367Z,34.70
2018-06-29T03:46:05.714Z,34.70
2018-06-29T03:48:34.039Z,34.70
2018-06-29T03:51:02.450Z,34.70
2018-06-29T03:53:30.812Z,34.80
2018-06-29T03:55:59.209Z,34.80
2018-06-29T03:58:27.629Z,34.80
2018-06-29T04:00:56.046Z,34.70
2018-06-29T04:03:24.470Z,34.90
2018-06-29T04:05:52.784Z,34.80
2018-06-29T04:08:21.133Z,34.80
2018-06-29T04:10:49.595Z,35.00
2018-06-29T04:13:17.947Z,35.00
2018-06-29T04:15:46.257Z,35.00
2018-06-29T04:18:14.649Z,35.00
2018-06-29T04:20:42.993Z,35.00
2018-06-29T04:23:11.409Z,35.00
2018-06-29T04:25:39.804Z,35.70
2018-06-29T04:30:36.394Z,35.40
2018-06-29T04:33:04.754Z,35.60
2018-06-29T04:35:33.137Z,35.00
2018-06-29T04:38:01.617Z,35.00
2018-06-29T04:40:29.973Z,35.00
2018-06-29T04:42:58.345Z,35.00
2018-06-29T04:45:26.713Z,35.80
2018-06-29T04:47:55.097Z,35.10
2018-06-29T04:50:23.539Z,35.10
2018-06-29T04:52:51.949Z,35.20
2018-06-29T04:55:20.391Z,35.20
2018-06-29T04:57:48.798Z,35.30
2018-06-29T05:00:17.345Z,35.30
2018-06-29T05:02:45.711Z,35.40
2018-06-29T05:05:14.197Z,35.40
2018-06-29T05:07:42.573Z,35.40
2018-06-29T05:10:10.941Z,35.10
2018-06-29T05:12:39.333Z,35.10
2018-06-29T05:15:07.715Z,35.30
2018-06-29T05:17:36.145Z,34.70
2018-06-29T05:20:05.070Z,34.90
2018-06-29T05:22:33.497Z,35.00
2018-06-29T05:25:01.928Z,35.00
2018-06-29T05:27:30.354Z,34.80
2018-06-29T05:29:58.784Z,35.00
2018-06-29T05:32:27.167Z,34.80
2018-06-29T05:34:55.528Z,34.90
2018-06-29T05:37:23.916Z,35.10
2018-06-29T05:39:52.288Z,35.00
2018-06-29T05:42:20.664Z,34.90
2018-06-29T05:44:49.086Z,35.00
2018-06-29T05:47:17.677Z,35.10
2018-06-29T05:49:46.026Z,35.00
2018-06-29T05:54:42.706Z,35.40
2018-06-29T05:57:11.093Z,35.00
2018-06-29T05:59:39.497Z,35.10
2018-06-29T06:02:08.764Z,35.20
2018-06-29T06:04:37.210Z,35.30
2018-06-29T06:07:05.692Z,35.30
2018-06-29T06:09:34.098Z,35.30
2018-06-29T06:12:02.562Z,35.20
2018-06-29T06:16:59.098Z,35.20
2018-06-29T06:19:38.896Z,35.30
2018-06-29T06:22:07.428Z,35.30
2018-06-29T06:27:03.815Z,35.10
2018-06-29T06:29:32.182Z,35.20
2018-06-29T06:32:00.555Z,35.20
2018-06-29T06:34:28.903Z,35.30
2018-06-29T06:36:57.319Z,35.10
2018-06-29T06:39:25.666Z,35.30
2018-06-29T06:41:54.035Z,35.30
2018-06-29T06:44:23.279Z,35.40
2018-06-29T06:46:51.696Z,35.50
2018-06-29T06:49:20.312Z,36.50
2018-06-29T06:51:48.663Z,35.50
2018-06-29T06:54:17.131Z,35.80
2018-06-29T06:56:45.547Z,35.50
2018-06-29T06:59:14.018Z,35.30
2018-06-29T07:06:38.529Z,35.10
2018-06-29T07:09:10.101Z,35.10
2018-06-29T07:11:38.501Z,34.80
2018-06-29T07:14:07.419Z,35.00
2018-06-29T07:16:35.808Z,35.20
2018-06-29T07:19:04.387Z,34.90
2018-06-29T07:21:32.905Z,34.70
2018-06-29T07:24:01.279Z,35.10
2018-06-29T07:26:29.655Z,35.00
2018-06-29T07:28:58.277Z,35.20
2018-06-29T07:31:26.873Z,35.10
2018-06-29T07:33:55.226Z,35.10
2018-06-29T07:36:23.565Z,35.10
2018-06-29T07:38:52.087Z,35.20
2018-06-29T07:41:20.473Z,35.10
2018-06-29T07:43:48.886Z,35.00
2018-06-29T07:46:17.253Z,35.00
2018-06-29T07:48:45.698Z,35.00
2018-06-29T07:51:14.121Z,35.00
2018-06-29T07:53:42.519Z,35.00
2018-06-29T07:56:10.919Z,34.80
2018-06-29T07:58:39.369Z,34.80
2018-06-29T08:01:07.617Z,34.80
2018-06-29T08:03:36.324Z,34.90
2018-06-29T08:06:04.701Z,35.00
2018-06-29T08:08:33.157Z,35.00
2018-06-29T08:11:01.529Z,34.90
2018-06-29T08:13:29.923Z,35.00
2018-06-29T08:15:58.296Z,35.00
2018-06-29T08:18:26.706Z,34.90
2018-06-29T08:20:55.071Z,34.90
2018-06-29T08:23:30.472Z,34.80
2018-06-29T08:26:10.358Z,35.00
2018-06-29T08:28:38.727Z,34.80
2018-06-29T08:31:07.030Z,34.80
2018-06-29T08:33:35.446Z,34.90
2018-06-29T08:36:03.864Z,34.70
2018-06-29T08:38:32.354Z,34.80
2018-06-29T08:41:00.719Z,35.00
2018-06-29T08:43:29.078Z,35.00
2018-06-29T08:45:57.438Z,35.10
2018-06-29T08:48:26.063Z,34.90
2018-06-29T08:50:54.443Z,35.00
2018-06-29T08:53:22.819Z,35.70
2018-06-29T08:55:53.432Z,34.80
2018-06-29T08:58:21.783Z,34.90
2018-06-29T09:00:50.481Z,34.80
2018-06-29T09:03:18.882Z,34.90
2018-06-29T09:05:47.303Z,34.80
2018-06-29T09:08:15.850Z,34.80
2018-06-29T09:10:44.460Z,34.90
2018-06-29T09:13:12.813Z,34.80
2018-06-29T09:15:41.254Z,34.90
2018-06-29T09:18:09.836Z,34.80
2018-06-29T09:20:38.185Z,34.80
2018-06-29T09:23:07.108Z,34.90
2018-06-29T09:25:35.445Z,34.90
2018-06-29T09:28:03.883Z,34.90
2018-06-29T09:30:32.305Z,35.50
2018-06-29T09:33:00.721Z,34.50
2018-06-29T09:35:29.077Z,34.90
2018-06-29T09:37:57.515Z,34.90
2018-06-29T09:40:25.876Z,34.80
2018-06-29T09:42:54.209Z,34.70
2018-06-29T09:45:22.677Z,34.70
2018-06-29T09:47:51.029Z,34.60
2018-06-29T09:50:19.449Z,34.60
2018-06-29T09:52:47.919Z,34.70
2018-06-29T09:55:16.307Z,34.70
2018-06-29T09:57:44.695Z,34.80
2018-06-29T10:00:15.698Z,34.60
2018-06-29T10:02:45.154Z,34.70
2018-06-29T10:05:13.481Z,34.70
2018-06-29T10:07:41.843Z,34.60
2018-06-29T10:10:10.185Z,34.60
2018-06-29T10:12:38.803Z,34.60
2018-06-29T10:15:07.237Z,34.70
2018-06-29T10:17:35.700Z,34.40
2018-06-29T10:20:04.536Z,34.50
2018-06-29T10:22:33.118Z,34.50
2018-06-29T10:25:01.554Z,34.40
2018-06-29T10:27:29.930Z,34.50
2018-06-29T10:29:58.327Z,34.40
2018-06-29T10:32:26.694Z,34.30
2018-06-29T10:34:55.243Z,34.50
2018-06-29T10:37:23.980Z,34.40
2018-06-29T10:39:52.281Z,34.40
2018-06-29T10:42:20.739Z,34.40
2018-06-29T10:44:49.224Z,34.30
2018-06-29T10:47:17.507Z,34.40
2018-06-29T10:49:45.921Z,34.30
2018-06-29T10:52:14.401Z,34.30
2018-06-29T10:54:42.785Z,34.30
2018-06-29T10:57:11.194Z,34.20
2018-06-29T10:59:39.581Z,34.20
2018-06-29T11:02:07.947Z,34.20
2018-06-29T11:04:36.326Z,34.20
2018-06-29T11:07:04.694Z,34.30
2018-06-29T11:09:33.099Z,34.20
2018-06-29T11:12:01.489Z,34.10
2018-06-29T11:14:29.847Z,34.30
2018-06-29T11:16:58.288Z,34.20
2018-06-29T11:19:26.702Z,34.30
2018-06-29T11:21:55.076Z,34.20
2018-06-29T11:24:23.610Z,34.30
2018-06-29T11:26:52.038Z,34.20
2018-06-29T11:29:20.397Z,34.40
2018-06-29T11:31:48.773Z,34.40
2018-06-29T11:34:17.100Z,34.40
2018-06-29T11:36:45.680Z,34.50
2018-06-29T11:39:14.487Z,34.50
2018-06-29T11:41:43.581Z,34.40
2018-06-29T11:44:12.722Z,34.50
2018-06-29T11:46:41.093Z,34.30
2018-06-29T11:49:09.838Z,34.30
2018-06-29T11:51:38.252Z,34.30
2018-06-29T11:54:07.142Z,34.20
2018-06-29T11:56:35.496Z,34.30
2018-06-29T11:59:03.876Z,34.20
2018-06-29T12:01:32.250Z,34.40
2018-06-29T12:04:00.894Z,34.40
2018-06-29T12:06:29.340Z,34.30
2018-06-29T12:08:57.700Z,34.20
2018-06-29T12:13:54.393Z,33.60
2018-06-29T12:16:22.782Z,34.30
2018-06-29T12:18:51.237Z,34.20
2018-06-29T12:21:19.637Z,34.10
2018-06-29T12:23:48.236Z,34.10
2018-06-29T12:26:16.654Z,34.10
2018-06-29T12:28:45.106Z,34.10
2018-06-29T12:31:13.610Z,34.00
2018-06-29T12:33:42.077Z,34.00
2018-06-29T12:36:10.578Z,34.20
2018-06-29T12:38:38.975Z,34.00
2018-06-29T12:41:07.367Z,34.60
2018-06-29T12:43:35.773Z,34.00
2018-06-29T12:46:04.214Z,34.70
2018-06-29T12:48:32.550Z,34.20
2018-06-29T12:51:00.902Z,34.60
2018-06-29T12:53:29.313Z,34.00
2018-06-29T12:55:57.774Z,34.10
2018-06-29T12:58:26.169Z,34.10
2018-06-29T13:00:54.539Z,34.10
2018-06-29T13:03:22.886Z,34.20
2018-06-29T13:05:51.336Z,34.10
2018-06-29T13:08:19.726Z,34.20
2018-06-29T13:10:48.113Z,34.10
2018-06-29T13:13:16.450Z,34.10
2018-06-29T13:15:44.832Z,34.10
2018-06-29T13:18:13.335Z,34.10
2018-06-29T13:20:41.703Z,34.00
2018-06-29T13:23:10.128Z,34.00
2018-06-29T13:25:38.616Z,34.00
2018-06-29T13:28:07.104Z,34.10
2018-06-29T13:30:35.636Z,34.00
2018-06-29T13:33:04.134Z,34.00
2018-06-29T13:35:32.589Z,34.10
2018-06-29T13:38:00.978Z,34.10
2018-06-29T13:40:29.412Z,34.20
2018-06-29T13:42:57.802Z,34.20
2018-06-29T13:45:26.238Z,34.00
2018-06-29T13:47:54.648Z,34.10
2018-06-29T13:50:23.062Z,34.10
2018-06-29T13:52:51.502Z,34.20
2018-06-29T13:55:20.018Z,34.70
2018-06-29T13:57:48.471Z,34.00
2018-06-29T14:00:16.905Z,34.00
2018-06-29T14:02:45.329Z,34.00
2018-06-29T14:05:14.231Z,34.80
2018-06-29T14:07:42.634Z,34.00
2018-06-29T14:10:10.994Z,34.20
2018-06-29T14:12:39.362Z,34.00
2018-06-29T14:15:07.732Z,34.20
2018-06-29T14:17:36.471Z,34.20
2018-06-29T14:20:05.651Z,34.00
2018-06-29T14:22:34.030Z,34.10
2018-06-29T14:25:02.488Z,34.20
2018-06-29T14:27:30.863Z,33.90
2018-06-29T14:29:59.308Z,34.00
2018-06-29T14:32:27.982Z,34.00
2018-06-29T14:34:56.345Z,33.90
2018-06-29T14:37:24.777Z,34.00
2018-06-29T14:39:53.259Z,34.00
2018-06-29T14:42:21.666Z,34.00
2018-06-29T14:44:50.059Z,33.90
2018-06-29T14:47:18.418Z,34.00
2018-06-29T14:49:46.965Z,34.00
2018-06-29T14:52:15.458Z,34.00
2018-06-29T14:54:43.791Z,34.00
2018-06-29T14:57:12.169Z,34.00
2018-06-29T14:59:40.535Z,34.00
2018-06-29T15:02:08.546Z,34.00
2018-06-29T15:04:37.047Z,34.10
2018-06-29T15:07:05.561Z,34.00
2018-06-29T15:09:33.966Z,34.10
2018-06-29T15:12:02.356Z,34.00
2018-06-29T15:14:30.960Z,33.90
2018-06-29T15:16:59.374Z,34.00
2018-06-29T15:19:27.716Z,34.00
2018-06-29T15:21:56.266Z,34.00
2018-06-29T15:24:24.570Z,34.00
2018-06-29T15:26:52.916Z,34.00
2018-06-29T15:29:21.276Z,34.10
2018-06-29T15:31:49.700Z,34.10
2018-06-29T15:34:18.035Z,34.00
2018-06-29T15:36:46.574Z,34.20
2018-06-29T15:39:14.965Z,34.00
2018-06-29T15:41:43.318Z,34.10
2018-06-29T15:44:12.194Z,34.10
2018-06-29T15:46:40.568Z,34.20
2018-06-29T15:49:09.689Z,34.80
2018-06-29T15:54:06.366Z,34.10
2018-06-29T15:56:34.692Z,34.10
2018-06-29T15:59:03.218Z,34.20
2018-06-29T16:01:31.612Z,34.10
2018-06-29T16:04:00.719Z,34.10
2018-06-29T16:06:29.064Z,33.90
2018-06-29T16:08:57.464Z,33.90
2018-06-29T16:11:25.828Z,34.00
2018-06-29T16:13:54.566Z,34.00
2018-06-29T16:16:23.032Z,34.10
2018-06-29T16:18:51.446Z,34.20
2018-06-29T16:21:19.945Z,34.10
2018-06-29T16:23:48.343Z,34.20
2018-06-29T16:26:16.706Z,34.20
2018-06-29T16:28:45.053Z,34.30
2018-06-29T16:31:13.428Z,34.20
2018-06-29T16:33:41.754Z,34.10
2018-06-29T16:36:10.218Z,34.00
2018-06-29T16:38:38.647Z,34.10
2018-06-29T16:41:07.064Z,34.10
2018-06-29T16:43:35.582Z,34.00
2018-06-29T16:46:03.902Z,34.00
2018-06-29T16:48:32.438Z,34.00
2018-06-29T16:51:00.847Z,34.10
2018-06-29T16:53:29.223Z,34.10
2018-06-29T16:58:26.109Z,34.70
2018-06-29T17:00:54.503Z,34.10
2018-06-29T17:03:22.989Z,34.00
2018-06-29T17:05:51.584Z,34.20
2018-06-29T17:08:20.106Z,34.20
2018-06-29T17:10:48.498Z,34.20
2018-06-29T17:13:16.896Z,34.10
2018-06-29T17:15:45.282Z,34.20
2018-06-29T17:20:41.968Z,34.10
2018-06-29T17:23:10.273Z,34.00
2018-06-29T17:25:38.832Z,34.10
2018-06-29T17:28:07.530Z,34.00
2018-06-29T17:30:36.264Z,34.00
2018-06-29T17:33:04.683Z,34.20
2018-06-29T17:35:33.057Z,34.10
2018-06-29T17:38:01.408Z,34.10
2018-06-29T17:40:29.798Z,34.00
2018-06-29T17:42:58.270Z,34.00
2018-06-29T17:45:26.656Z,34.10
2018-06-29T17:47:55.165Z,34.20
2018-06-29T17:50:23.568Z,34.10
2018-06-29T17:52:51.958Z,34.00
2018-06-29T17:55:20.383Z,33.90
2018-06-29T17:57:48.741Z,34.00
2018-06-29T18:00:17.192Z,34.00
2018-06-29T18:02:45.585Z,34.10
2018-06-29T18:05:14.021Z,34.00
2018-06-29T18:07:42.394Z,34.10
2018-06-29T18:10:10.940Z,34.00
2018-06-29T18:12:39.541Z,33.90
2018-06-29T18:15:07.966Z,34.10
2018-06-29T18:17:36.439Z,34.00
2018-06-29T18:20:04.817Z,34.10
2018-06-29T18:22:33.190Z,34.10
2018-06-29T18:25:01.571Z,34.00
2018-06-29T18:27:30.007Z,34.20
2018-06-29T18:29:58.525Z,34.10
2018-06-29T18:32:27.036Z,34.10
2018-06-29T18:34:55.395Z,34.10
2018-06-29T18:37:23.784Z,34.00
2018-06-29T18:39:52.241Z,34.00
2018-06-29T18:42:20.692Z,34.00
2018-06-29T18:44:49.032Z,34.00
2018-06-29T18:47:17.423Z,33.80
2018-06-29T18:49:45.842Z,34.00
2018-06-29T18:52:14.211Z,33.90
2018-06-29T18:54:42.600Z,34.10
2018-06-29T18:59:39.273Z,34.00
2018-06-29T19:02:07.636Z,34.60
2018-06-29T19:04:36.102Z,34.00
2018-06-29T19:07:04.572Z,34.00
2018-06-29T19:09:33.032Z,34.00
2018-06-29T19:12:01.401Z,34.00
2018-06-29T19:14:29.785Z,33.80
2018-06-29T19:16:58.226Z,33.80
2018-06-29T19:19:26.592Z,34.00
2018-06-29T19:21:54.989Z,34.00
2018-06-29T19:24:23.407Z,34.00
2018-06-29T19:26:51.816Z,34.00
2018-06-29T19:29:20.238Z,33.80
2018-06-29T19:31:48.639Z,34.00
2018-06-29T19:34:17.105Z,33.80
2018-06-29T19:36:45.430Z,34.00
2018-06-29T19:39:13.900Z,34.00
2018-06-29T19:41:42.523Z,34.00
2018-06-29T19:44:11.435Z,34.00
2018-06-29T19:46:39.968Z,34.00
2018-06-29T19:49:09.113Z,34.00
2018-06-29T19:51:37.522Z,34.00
2018-06-29T19:54:06.233Z,34.00
2018-06-29T19:56:34.638Z,33.90
2018-06-29T19:59:03.001Z,33.70
2018-06-29T20:01:31.539Z,33.90
2018-06-29T20:03:59.904Z,34.10
2018-06-29T20:06:28.351Z,34.00
2018-06-29T20:08:56.887Z,33.80
2018-06-29T20:11:25.322Z,34.10
2018-06-29T20:13:53.840Z,34.00
2018-06-29T20:16:22.301Z,33.80
2018-06-29T20:18:50.871Z,34.00
2018-06-29T20:21:19.327Z,34.00
2018-06-29T20:23:47.674Z,33.90
2018-06-29T20:26:16.052Z,33.90
2018-06-29T20:28:44.460Z,34.00
2018-06-29T20:31:13.025Z,33.90
2018-06-29T20:33:41.409Z,34.60
2018-06-29T20:36:09.863Z,33.90
2018-06-29T20:38:38.416Z,34.00
2018-06-29T20:41:06.663Z,34.00
2018-06-29T20:43:35.118Z,33.90
2018-06-29T20:46:03.478Z,34.00
2018-06-29T20:48:32.772Z,33.90
2018-06-29T20:51:01.270Z,34.00
2018-06-29T20:53:29.632Z,34.00
2018-06-29T20:55:58.139Z,34.00
2018-06-29T20:58:26.482Z,33.90
2018-06-29T21:00:54.871Z,34.00
2018-06-29T21:03:23.270Z,34.00
2018-06-29T21:05:51.686Z,34.00
2018-06-29T21:08:20.099Z,33.90
2018-06-29T21:10:48.490Z,33.80
2018-06-29T21:13:16.883Z,34.00
2018-06-29T21:15:45.457Z,34.00
2018-06-29T21:18:13.851Z,34.60
2018-06-29T21:20:42.309Z,34.00
2018-06-29T21:23:10.667Z,34.00
2018-06-29T21:25:39.143Z,34.10
2018-06-29T21:28:07.605Z,34.10
2018-06-29T21:30:35.940Z,34.00
2018-06-29T21:33:04.349Z,34.10
2018-06-29T21:35:32.779Z,33.90
2018-06-29T21:38:01.163Z,34.10
2018-06-29T21:40:31.473Z,33.90
2018-06-29T21:42:59.843Z,34.10
2018-06-29T21:45:28.247Z,33.90
2018-06-29T21:47:56.624Z,34.00
2018-06-29T21:50:25.062Z,34.20
2018-06-29T21:52:53.414Z,34.00
2018-06-29T21:55:21.891Z,34.10
2018-06-29T21:57:50.236Z,33.90
2018-06-29T22:00:18.676Z,34.00
2018-06-29T22:02:47.091Z,34.10
2018-06-29T22:05:16.680Z,34.00
2018-06-29T22:07:45.596Z,34.00
2018-06-29T22:10:14.070Z,34.00
2018-06-29T22:12:42.489Z,34.00
2018-06-29T22:15:15.108Z,34.10
2018-06-29T22:17:43.561Z,33.90
2018-06-29T22:22:40.197Z,34.10
2018-06-29T22:25:09.942Z,34.10
2018-06-29T22:27:38.703Z,34.20
2018-06-29T22:30:07.190Z,34.00
2018-06-29T22:32:35.622Z,34.00
2018-06-29T22:35:04.058Z,33.30
2018-06-29T22:37:32.450Z,34.00
2018-06-29T22:40:00.857Z,34.00
2018-06-29T22:42:29.239Z,34.00
2018-06-29T22:44:57.597Z,34.10
2018-06-29T22:47:26.087Z,34.10
2018-06-29T22:49:54.403Z,34.10
2018-06-29T22:52:22.783Z,33.90
2018-06-29T22:54:51.184Z,34.00
2018-06-29T22:57:19.518Z,34.00
2018-06-29T22:59:47.890Z,34.00
2018-06-29T23:02:16.281Z,34.00
2018-06-29T23:04:44.741Z,34.00
2018-06-29T23:07:13.357Z,34.10
2018-06-29T23:09:41.819Z,34.00
2018-06-29T23:12:10.168Z,34.10
2018-06-29T23:14:38.542Z,34.10
2018-06-29T23:17:06.860Z,34.00
2018-06-29T23:19:35.906Z,34.20
2018-06-29T23:22:04.372Z,34.20
2018-06-29T23:24:32.750Z,34.30
2018-06-29T23:27:01.086Z,34.20
2018-06-29T23:29:29.409Z,34.30
2018-06-29T23:31:57.805Z,35.00
2018-06-29T23:34:26.378Z,34.20
2018-06-29T23:39:22.983Z,34.20
2018-06-29T23:41:51.352Z,34.40
2018-06-29T23:44:19.714Z,34.40
2018-06-29T23:46:48.132Z,34.30
2018-06-29T23:49:16.616Z,34.10
2018-06-29T23:51:45.058Z,34.20
2018-06-29T23:54:13.453Z,34.50
2018-06-29T23:56:41.791Z,34.20
2018-06-29T23:59:10.149Z,34.30
